createdAt,value
2023-04-26T00:00:13.394Z,5.20
2023-04-26T00:02:40.209Z,5.20
2023-04-26T00:05:07.880Z,5.20
2023-04-26T00:07:35.474Z,5.20
2023-04-26T00:10:02.129Z,5.10
2023-04-26T00:12:28.881Z,5.20
2023-04-26T00:14:57.030Z,5.10
2023-04-26T00:17:36.134Z,5.10
2023-04-26T00:20:04.234Z,5.00
2023-04-26T00:22:31.399Z,5.00
2023-04-26T00:24:58.107Z,5.00
2023-04-26T00:27:43.805Z,4.90
2023-04-26T00:30:11.178Z,4.80
2023-04-26T00:32:37.839Z,4.80
2023-04-26T00:35:06.489Z,4.80
2023-04-26T00:37:34.350Z,4.70
2023-04-26T00:40:01.140Z,4.70
2023-04-26T00:42:27.894Z,4.70
2023-04-26T00:44:57.606Z,4.70
2023-04-26T00:47:43.356Z,4.70
2023-04-26T00:50:10.603Z,4.70
2023-04-26T00:52:37.176Z,4.70
2023-04-26T00:55:03.995Z,4.70
2023-04-26T00:57:32.788Z,4.70
2023-04-26T00:59:59.428Z,4.70
2023-04-26T01:02:26.839Z,4.60
2023-04-26T01:04:53.543Z,4.60
2023-04-26T01:07:21.309Z,4.60
2023-04-26T01:09:47.897Z,4.60
2023-04-26T01:12:14.563Z,4.60
2023-04-26T01:14:41.249Z,4.50
2023-04-26T01:17:08.155Z,4.50
2023-04-26T01:19:37.432Z,4.60
2023-04-26T01:22:04.272Z,4.60
2023-04-26T01:24:30.879Z,4.60
2023-04-26T01:26:57.530Z,4.60
2023-04-26T01:29:25.506Z,4.70
2023-04-26T01:31:52.181Z,4.70
2023-04-26T01:34:19.400Z,4.80
2023-04-26T01:36:46.031Z,4.80
2023-04-26T01:39:32.649Z,4.80
2023-04-26T01:41:59.391Z,4.80
2023-04-26T01:44:26.315Z,4.80
2023-04-26T01:46:52.933Z,4.80
2023-04-26T01:49:38.648Z,4.80
2023-04-26T01:52:05.335Z,4.70
2023-04-26T01:54:32.046Z,4.70
2023-04-26T01:57:00.064Z,4.60
2023-04-26T01:59:28.033Z,4.60
2023-04-26T02:01:54.778Z,4.60
2023-04-26T02:04:21.515Z,4.60
2023-04-26T02:06:48.152Z,4.60
2023-04-26T02:09:18.242Z,4.60
2023-04-26T02:11:47.393Z,4.60
2023-04-26T02:14:14.144Z,4.50
2023-04-26T02:16:41.920Z,4.50
2023-04-26T02:19:27.679Z,4.60
2023-04-26T02:21:54.270Z,4.60
2023-04-26T02:24:22.079Z,4.60
2023-04-26T02:26:48.765Z,4.70
2023-04-26T02:29:15.784Z,4.70
2023-04-26T02:31:42.432Z,4.70
2023-04-26T02:34:09.149Z,4.80
2023-04-26T02:36:35.921Z,4.80
2023-04-26T02:39:03.535Z,4.80
2023-04-26T02:41:30.207Z,4.80
2023-04-26T02:43:57.086Z,4.80
2023-04-26T02:46:23.942Z,4.80
2023-04-26T02:48:52.045Z,4.80
2023-04-26T02:51:19.172Z,4.90
2023-04-26T02:53:45.886Z,4.90
2023-04-26T02:56:12.577Z,4.90
2023-04-26T02:58:41.260Z,4.90
2023-04-26T03:01:08.651Z,4.90
2023-04-26T03:03:35.707Z,4.90
2023-04-26T03:06:02.519Z,4.90
2023-04-26T03:08:29.230Z,5.00
2023-04-26T03:10:55.905Z,5.00
2023-04-26T03:13:22.580Z,5.10
2023-04-26T03:15:50.030Z,5.10
2023-04-26T03:18:17.866Z,5.10
2023-04-26T03:20:44.519Z,5.20
2023-04-26T03:23:11.180Z,5.20
2023-04-26T03:25:38.233Z,5.20
2023-04-26T03:28:06.168Z,5.20
2023-04-26T03:30:33.114Z,5.30
2023-04-26T03:33:00.196Z,5.30
2023-04-26T03:35:26.986Z,5.30
2023-04-26T03:37:54.459Z,5.40
2023-04-26T03:40:22.647Z,5.40
2023-04-26T03:42:49.233Z,5.40
2023-04-26T03:45:15.872Z,5.40
2023-04-26T03:48:02.816Z,5.40
2023-04-26T03:50:29.510Z,5.40
2023-04-26T03:52:56.554Z,5.50
2023-04-26T03:55:23.197Z,5.50
2023-04-26T03:57:51.033Z,5.50
2023-04-26T04:00:17.701Z,5.50
2023-04-26T04:02:44.423Z,5.50
2023-04-26T04:05:16.755Z,5.50
2023-04-26T04:07:43.952Z,5.50
2023-04-26T04:10:10.895Z,5.50
2023-04-26T04:12:39.090Z,5.50
2023-04-26T04:15:05.730Z,5.50
2023-04-26T04:17:35.017Z,5.50
2023-04-26T04:20:03.501Z,5.50
2023-04-26T04:22:30.271Z,5.50
2023-04-26T04:24:57.482Z,5.50
2023-04-26T04:27:26.866Z,5.50
2023-04-26T04:29:56.501Z,5.40
2023-04-26T04:32:24.889Z,5.40
2023-04-26T04:34:53.863Z,5.30
2023-04-26T04:37:22.934Z,5.30
2023-04-26T04:39:49.517Z,5.40
2023-04-26T04:42:16.514Z,5.30
2023-04-26T04:44:43.336Z,5.40
2023-04-26T04:47:10.298Z,5.40
2023-04-26T04:49:37.989Z,5.40
2023-04-26T04:52:04.565Z,5.40
2023-04-26T04:54:31.290Z,5.40
2023-04-26T04:56:57.916Z,5.50
2023-04-26T04:59:25.188Z,5.50
2023-04-26T05:01:52.140Z,5.50
2023-04-26T05:04:19.130Z,5.50
2023-04-26T05:06:45.934Z,5.60
2023-04-26T05:09:15.574Z,5.60
2023-04-26T05:11:42.371Z,5.60
2023-04-26T05:14:10.726Z,5.60
2023-04-26T05:16:38.436Z,5.70
2023-04-26T05:19:08.672Z,5.70
2023-04-26T05:21:36.564Z,5.70
2023-04-26T05:24:03.306Z,5.80
2023-04-26T05:26:30.304Z,5.80
2023-04-26T05:29:39.466Z,5.80
2023-04-26T05:32:23.016Z,5.90
2023-04-26T05:35:12.707Z,5.90
2023-04-26T05:37:40.886Z,6.00
2023-04-26T05:40:09.078Z,6.00
2023-04-26T05:42:36.034Z,6.10
2023-04-26T05:45:02.780Z,6.10
2023-04-26T05:47:31.672Z,6.20
2023-04-26T05:49:58.287Z,6.30
2023-04-26T05:52:24.924Z,6.30
2023-04-26T05:54:52.175Z,6.40
2023-04-26T05:57:22.085Z,6.40
2023-04-26T05:59:48.877Z,6.50
2023-04-26T06:02:17.020Z,6.50
2023-04-26T06:04:43.821Z,6.60
2023-04-26T06:07:14.969Z,6.70
2023-04-26T06:09:41.809Z,6.70
2023-04-26T06:12:08.755Z,6.80
2023-04-26T06:14:39.618Z,6.80
2023-04-26T06:17:11.060Z,6.90
2023-04-26T06:19:37.748Z,7.00
2023-04-26T06:22:04.756Z,7.00
2023-04-26T06:24:31.467Z,7.10
2023-04-26T06:26:58.966Z,7.10
2023-04-26T06:29:45.747Z,7.10
2023-04-26T06:32:12.600Z,7.20
2023-04-26T06:34:39.275Z,7.30
2023-04-26T06:37:06.307Z,7.30
2023-04-26T06:39:34.073Z,7.30
2023-04-26T06:42:00.922Z,7.40
2023-04-26T06:44:46.398Z,7.40
2023-04-26T06:47:14.662Z,7.50
2023-04-26T06:49:41.533Z,7.50
2023-04-26T06:52:09.430Z,7.60
2023-04-26T06:54:45.874Z,7.70
2023-04-26T06:57:22.818Z,7.70
2023-04-26T06:59:49.403Z,7.80
2023-04-26T07:02:16.198Z,7.80
2023-04-26T07:04:43.164Z,7.90
2023-04-26T07:07:12.431Z,7.90
2023-04-26T07:09:39.680Z,8.00
2023-04-26T07:12:06.319Z,8.10
2023-04-26T07:14:33.565Z,8.20
2023-04-26T07:17:00.181Z,8.30
2023-04-26T07:19:29.086Z,8.40
2023-04-26T07:21:55.674Z,8.40
2023-04-26T07:24:22.282Z,8.50
2023-04-26T07:26:48.927Z,8.50
2023-04-26T07:29:16.115Z,8.50
2023-04-26T07:31:42.737Z,8.50
2023-04-26T07:34:09.337Z,8.60
2023-04-26T07:36:35.964Z,8.70
2023-04-26T07:39:05.894Z,8.80
2023-04-26T07:41:32.465Z,8.80
2023-04-26T07:43:59.187Z,8.80
2023-04-26T07:46:25.926Z,8.80
2023-04-26T07:48:52.737Z,8.80
2023-04-26T07:51:19.346Z,8.80
2023-04-26T07:53:46.020Z,8.80
2023-04-26T07:56:12.722Z,8.90
2023-04-26T07:58:41.774Z,8.90
2023-04-26T08:01:08.832Z,8.90
2023-04-26T08:03:35.692Z,8.90
2023-04-26T08:06:02.711Z,8.80
2023-04-26T08:08:33.335Z,8.70
2023-04-26T08:11:00.026Z,8.70
2023-04-26T08:13:29.088Z,8.60
2023-04-26T08:15:56.238Z,8.60
2023-04-26T08:18:23.081Z,8.70
2023-04-26T08:20:49.725Z,8.60
2023-04-26T08:23:16.411Z,8.70
2023-04-26T08:25:47.778Z,8.70
2023-04-26T08:28:14.747Z,8.60
2023-04-26T08:30:41.395Z,8.60
2023-04-26T08:33:08.342Z,8.70
2023-04-26T08:35:34.943Z,8.70
2023-04-26T08:38:01.550Z,8.70
2023-04-26T08:40:28.158Z,8.70
2023-04-26T08:42:54.790Z,8.70
2023-04-26T08:45:21.555Z,8.80
2023-04-26T08:47:48.225Z,8.80
2023-04-26T08:50:16.303Z,8.80
2023-04-26T08:52:43.083Z,8.80
2023-04-26T08:55:12.982Z,8.80
2023-04-26T08:57:40.873Z,8.80
2023-04-26T09:00:10.375Z,8.70
2023-04-26T09:02:37.125Z,8.70
2023-04-26T09:05:04.764Z,8.70
2023-04-26T09:07:32.145Z,8.80
2023-04-26T09:09:58.759Z,8.80
2023-04-26T09:12:25.402Z,8.80
2023-04-26T09:14:53.122Z,8.80
2023-04-26T09:17:19.769Z,8.80
2023-04-26T09:19:46.448Z,8.90
2023-04-26T09:22:13.106Z,8.80
2023-04-26T09:24:39.710Z,8.90
2023-04-26T09:27:06.325Z,8.90
2023-04-26T09:29:32.894Z,9.00
2023-04-26T09:31:59.627Z,9.10
2023-04-26T09:34:26.301Z,9.10
2023-04-26T09:36:52.920Z,9.10
2023-04-26T09:39:20.841Z,9.20
2023-04-26T09:41:47.582Z,9.20
2023-04-26T09:44:14.170Z,9.30
2023-04-26T09:46:41.862Z,9.40
2023-04-26T09:49:09.712Z,9.50
2023-04-26T09:51:36.386Z,9.70
2023-04-26T09:54:02.983Z,9.80
2023-04-26T09:56:29.597Z,9.90
2023-04-26T09:59:00.611Z,10.00
2023-04-26T10:01:30.430Z,10.30
2023-04-26T10:03:57.764Z,10.50
2023-04-26T10:06:25.146Z,10.70
2023-04-26T10:08:52.129Z,10.90
2023-04-26T10:11:19.056Z,11.10
2023-04-26T10:13:45.662Z,11.20
2023-04-26T10:16:12.404Z,11.30
2023-04-26T10:18:39.469Z,11.50
2023-04-26T10:21:06.090Z,11.60
2023-04-26T10:23:33.255Z,11.70
2023-04-26T10:25:59.893Z,11.70
2023-04-26T10:28:26.684Z,11.90
2023-04-26T10:30:53.513Z,11.90
2023-04-26T10:33:20.676Z,12.10
2023-04-26T10:35:47.413Z,12.10
2023-04-26T10:38:16.447Z,12.20
2023-04-26T10:40:43.051Z,12.20
2023-04-26T10:43:13.915Z,12.40
2023-04-26T10:45:40.526Z,12.80
2023-04-26T10:48:08.560Z,13.10
2023-04-26T10:50:36.619Z,13.10
2023-04-26T10:53:06.376Z,13.00
2023-04-26T10:55:33.067Z,12.90
2023-04-26T11:01:03.823Z,12.40
2023-04-26T11:03:31.075Z,12.20
2023-04-26T11:05:57.906Z,12.10
2023-04-26T11:08:26.135Z,11.90
2023-04-26T11:10:53.125Z,11.90
2023-04-26T11:13:20.401Z,12.00
2023-04-26T11:15:48.745Z,12.20
2023-04-26T11:18:17.038Z,12.20
2023-04-26T11:20:43.655Z,12.40
2023-04-26T11:23:10.384Z,12.60
2023-04-26T11:25:37.254Z,12.60
2023-04-26T11:28:05.066Z,12.70
2023-04-26T11:30:31.951Z,12.70
2023-04-26T11:32:58.614Z,12.90
2023-04-26T11:35:26.065Z,13.00
2023-04-26T11:38:11.674Z,12.90
2023-04-26T11:40:38.402Z,12.90
2023-04-26T11:46:24.195Z,13.30
2023-04-26T11:48:52.301Z,13.90
2023-04-26T11:51:19.188Z,13.60
2023-04-26T11:53:46.270Z,13.30
2023-04-26T11:56:12.897Z,13.20
2023-04-26T11:58:40.637Z,13.20
2023-04-26T12:01:07.634Z,13.20
2023-04-26T12:03:37.548Z,13.30
2023-04-26T12:06:04.657Z,13.30
2023-04-26T12:08:51.290Z,13.40
2023-04-26T12:11:18.195Z,13.40
2023-04-26T12:13:44.821Z,13.40
2023-04-26T12:16:22.499Z,13.40
2023-04-26T12:18:54.174Z,13.50
2023-04-26T12:21:20.810Z,13.60
2023-04-26T12:23:47.910Z,13.70
2023-04-26T12:26:14.574Z,13.60
2023-04-26T12:28:59.955Z,13.50
2023-04-26T12:31:26.642Z,13.50
2023-04-26T12:33:53.321Z,13.60
2023-04-26T12:36:19.966Z,13.60
2023-04-26T12:38:46.783Z,13.40
2023-04-26T12:41:13.393Z,13.60
2023-04-26T12:43:40.083Z,13.70
2023-04-26T12:46:06.791Z,14.00
2023-04-26T12:48:33.550Z,13.90
2023-04-26T12:51:00.379Z,13.90
2023-04-26T12:53:26.987Z,13.80
2023-04-26T12:55:53.577Z,13.60
2023-04-26T12:58:21.860Z,13.60
2023-04-26T13:00:48.524Z,13.80
2023-04-26T13:03:15.268Z,13.70
2023-04-26T13:05:42.025Z,13.80
2023-04-26T13:08:09.832Z,13.90
2023-04-26T13:10:36.452Z,13.90
2023-04-26T13:13:03.307Z,14.10
2023-04-26T13:15:30.038Z,14.20
2023-04-26T13:17:56.999Z,14.20
2023-04-26T13:20:25.698Z,14.30
2023-04-26T13:22:53.310Z,14.30
2023-04-26T13:25:20.004Z,14.40
2023-04-26T13:28:07.569Z,14.40
2023-04-26T13:30:35.732Z,14.40
2023-04-26T13:33:02.331Z,14.40
2023-04-26T13:35:29.026Z,14.20
2023-04-26T13:37:56.817Z,14.30
2023-04-26T13:40:23.493Z,14.40
2023-04-26T13:42:50.392Z,14.50
2023-04-26T13:45:18.789Z,14.30
2023-04-26T13:47:46.145Z,14.30
2023-04-26T13:50:13.077Z,14.30
2023-04-26T13:52:39.876Z,14.40
2023-04-26T13:55:06.475Z,14.30
2023-04-26T13:57:51.786Z,14.50
2023-04-26T14:00:18.480Z,14.60
2023-04-26T14:02:47.191Z,15.00
2023-04-26T14:05:14.049Z,15.40
2023-04-26T14:07:42.038Z,15.60
2023-04-26T14:10:08.958Z,15.90
2023-04-26T14:12:35.602Z,15.70
2023-04-26T14:15:04.299Z,15.40
2023-04-26T14:17:32.420Z,15.30
2023-04-26T14:19:59.138Z,15.40
2023-04-26T14:22:25.858Z,15.20
2023-04-26T14:24:54.820Z,15.30
2023-04-26T14:27:21.677Z,15.90
2023-04-26T14:29:48.413Z,16.30
2023-04-26T14:32:15.190Z,17.00
2023-04-26T14:34:42.621Z,16.80
2023-04-26T14:37:09.587Z,16.70
2023-04-26T14:39:37.183Z,16.60
2023-04-26T14:42:04.125Z,16.70
2023-04-26T14:44:30.936Z,16.40
2023-04-26T14:46:57.550Z,16.40
2023-04-26T14:49:25.715Z,16.00
2023-04-26T14:51:53.665Z,15.70
2023-04-26T14:54:21.319Z,15.70
2023-04-26T14:56:48.456Z,15.60
2023-04-26T14:59:17.394Z,15.50
2023-04-26T15:01:46.728Z,15.40
2023-04-26T15:04:13.825Z,15.20
2023-04-26T15:06:40.661Z,15.00
2023-04-26T15:09:08.622Z,14.80
2023-04-26T15:11:35.406Z,14.80
2023-04-26T15:14:02.037Z,14.90
2023-04-26T15:16:28.664Z,14.80
2023-04-26T15:18:55.508Z,14.80
2023-04-26T15:21:24.343Z,14.70
2023-04-26T15:23:51.022Z,14.60
2023-04-26T15:26:17.623Z,14.40
2023-04-26T15:28:44.333Z,14.40
2023-04-26T15:31:14.418Z,14.40
2023-04-26T15:33:41.460Z,14.40
2023-04-26T15:36:10.868Z,14.30
2023-04-26T15:38:44.840Z,14.20
2023-04-26T15:41:11.518Z,14.20
2023-04-26T15:43:38.120Z,14.10
2023-04-26T15:46:04.749Z,14.00
2023-04-26T15:48:31.416Z,13.90
2023-04-26T15:50:58.305Z,13.90
2023-04-26T15:53:24.891Z,14.00
2023-04-26T15:55:51.564Z,14.00
2023-04-26T15:58:18.342Z,13.90
2023-04-26T16:00:44.944Z,13.70
2023-04-26T16:03:11.740Z,13.50
2023-04-26T16:05:38.626Z,13.50
2023-04-26T16:08:09.805Z,13.40
2023-04-26T16:10:38.440Z,13.50
2023-04-26T16:13:05.257Z,13.50
2023-04-26T16:15:31.982Z,13.50
2023-04-26T16:18:17.239Z,13.50
2023-04-26T16:20:44.742Z,13.50
2023-04-26T16:23:11.605Z,13.40
2023-04-26T16:25:38.624Z,13.40
2023-04-26T16:28:05.504Z,13.30
2023-04-26T16:30:32.288Z,13.20
2023-04-26T16:32:58.969Z,13.20
2023-04-26T16:35:25.828Z,13.10
2023-04-26T16:37:52.876Z,13.10
2023-04-26T16:40:19.534Z,13.10
2023-04-26T16:42:46.191Z,13.10
2023-04-26T16:45:15.526Z,13.00
2023-04-26T16:47:45.246Z,12.90
2023-04-26T16:50:11.893Z,12.90
2023-04-26T16:52:38.614Z,12.80
2023-04-26T16:55:06.194Z,12.80
2023-04-26T16:57:51.858Z,12.80
2023-04-26T17:00:18.536Z,12.70
2023-04-26T17:02:45.405Z,12.80
2023-04-26T17:05:12.432Z,12.80
2023-04-26T17:07:39.314Z,12.80
2023-04-26T17:10:05.966Z,12.80
2023-04-26T17:12:32.729Z,12.80
2023-04-26T17:14:59.668Z,12.80
2023-04-26T17:17:27.403Z,12.80
2023-04-26T17:19:54.388Z,12.80
2023-04-26T17:22:21.405Z,12.80
2023-04-26T17:24:48.029Z,12.80
2023-04-26T17:27:14.679Z,12.70
2023-04-26T17:29:41.495Z,12.60
2023-04-26T17:32:08.195Z,12.50
2023-04-26T17:34:34.894Z,12.30
2023-04-26T17:37:01.487Z,12.10
2023-04-26T17:39:29.180Z,11.90
2023-04-26T17:41:55.930Z,11.90
2023-04-26T17:44:23.011Z,11.80
2023-04-26T17:46:49.624Z,11.80
2023-04-26T17:49:17.495Z,11.80
2023-04-26T17:51:44.091Z,11.70
2023-04-26T17:54:10.988Z,11.70
2023-04-26T17:56:37.810Z,11.60
2023-04-26T17:59:23.536Z,11.50
2023-04-26T18:01:50.352Z,11.50
2023-04-26T18:04:17.346Z,11.40
2023-04-26T18:06:44.447Z,11.30
2023-04-26T18:09:11.266Z,11.30
2023-04-26T18:11:38.006Z,11.30
2023-04-26T18:14:04.670Z,11.20
2023-04-26T18:16:31.460Z,11.20
2023-04-26T18:18:59.418Z,11.20
2023-04-26T18:21:26.656Z,11.10
2023-04-26T18:23:53.239Z,11.10
2023-04-26T18:26:19.867Z,11.10
2023-04-26T18:29:05.468Z,11.10
2023-04-26T18:31:33.154Z,11.10
2023-04-26T18:33:59.866Z,11.10
2023-04-26T18:36:27.172Z,11.00
2023-04-26T18:38:54.773Z,11.00
2023-04-26T18:41:21.416Z,11.00
2023-04-26T18:43:48.059Z,11.00
2023-04-26T18:46:14.672Z,11.00
2023-04-26T18:48:43.318Z,10.90
2023-04-26T18:51:09.896Z,10.80
2023-04-26T18:53:36.468Z,10.70
2023-04-26T18:56:03.103Z,10.70
2023-04-26T18:58:31.182Z,10.70
2023-04-26T19:00:57.921Z,10.70
2023-04-26T19:03:24.812Z,10.60
2023-04-26T19:05:53.221Z,10.50
2023-04-26T19:08:19.887Z,10.50
2023-04-26T19:10:46.728Z,10.50
2023-04-26T19:13:13.375Z,10.50
2023-04-26T19:15:40.114Z,10.50
2023-04-26T19:18:11.073Z,10.50
2023-04-26T19:20:37.862Z,10.40
2023-04-26T19:23:04.511Z,10.40
2023-04-26T19:25:31.362Z,10.40
2023-04-26T19:27:59.237Z,10.40
2023-04-26T19:30:26.152Z,10.40
2023-04-26T19:32:52.973Z,10.40
2023-04-26T19:35:23.470Z,10.40
2023-04-26T19:37:52.528Z,10.30
2023-04-26T19:40:22.241Z,10.20
2023-04-26T19:42:49.058Z,10.30
2023-04-26T19:45:17.518Z,10.30
2023-04-26T19:47:45.520Z,10.20
2023-04-26T19:50:12.173Z,10.20
2023-04-26T19:52:38.828Z,10.20
2023-04-26T19:55:05.492Z,10.20
2023-04-26T19:57:52.366Z,10.20
2023-04-26T20:00:18.991Z,10.20
2023-04-26T20:02:46.940Z,10.20
2023-04-26T20:05:26.112Z,10.20
2023-04-26T20:07:59.075Z,10.20
2023-04-26T20:10:25.742Z,10.10
2023-04-26T20:12:53.236Z,10.10
2023-04-26T20:15:19.966Z,10.10
2023-04-26T20:17:48.713Z,10.10
2023-04-26T20:20:16.501Z,10.10
2023-04-26T20:22:43.147Z,10.10
2023-04-26T20:25:10.066Z,10.10
2023-04-26T20:27:55.325Z,10.00
2023-04-26T20:30:21.918Z,10.00
2023-04-26T20:32:48.557Z,10.00
2023-04-26T20:35:15.396Z,10.00
2023-04-26T20:38:01.532Z,10.00
2023-04-26T20:40:28.204Z,9.90
2023-04-26T20:42:54.834Z,9.90
2023-04-26T20:45:21.449Z,9.90
2023-04-26T20:47:49.261Z,9.90
2023-04-26T20:50:16.180Z,9.90
2023-04-26T20:52:42.761Z,9.90
2023-04-26T20:55:09.447Z,9.90
2023-04-26T20:57:36.401Z,9.90
2023-04-26T21:00:03.636Z,9.90
2023-04-26T21:02:30.354Z,9.90
2023-04-26T21:04:57.392Z,9.90
2023-04-26T21:07:25.397Z,9.80
2023-04-26T21:09:52.270Z,9.90
2023-04-26T21:12:18.880Z,9.90
2023-04-26T21:14:47.732Z,9.90
2023-04-26T21:17:14.364Z,9.80
2023-04-26T21:19:40.985Z,9.80
2023-04-26T21:22:09.418Z,9.70
2023-04-26T21:24:39.028Z,9.70
2023-04-26T21:27:05.667Z,9.70
2023-04-26T21:29:32.244Z,9.60
2023-04-26T21:31:58.896Z,9.60
2023-04-26T21:34:25.666Z,9.60
2023-04-26T21:36:53.234Z,9.60
2023-04-26T21:39:20.000Z,9.60
2023-04-26T21:41:46.620Z,9.50
2023-04-26T21:44:13.269Z,9.60
2023-04-26T21:46:40.154Z,9.50
2023-04-26T21:49:10.364Z,9.50
2023-04-26T21:51:37.376Z,9.50
2023-04-26T21:54:03.966Z,9.40
2023-04-26T21:56:30.708Z,9.40
2023-04-26T21:59:02.558Z,9.40
2023-04-26T22:01:29.290Z,9.40
2023-04-26T22:03:56.030Z,9.40
2023-04-26T22:06:22.742Z,9.40
2023-04-26T22:08:49.455Z,9.40
2023-04-26T22:11:16.148Z,9.30
2023-04-26T22:13:43.194Z,9.30
2023-04-26T22:16:09.780Z,9.30
2023-04-26T22:18:36.552Z,9.20
2023-04-26T22:21:03.221Z,9.10
2023-04-26T22:23:31.270Z,9.10
2023-04-26T22:26:04.206Z,9.00
2023-04-26T22:28:33.308Z,8.90
2023-04-26T22:31:00.041Z,8.90
2023-04-26T22:33:27.013Z,8.80
2023-04-26T22:35:58.873Z,8.80
2023-04-26T22:38:25.844Z,8.80
2023-04-26T22:40:52.570Z,8.80
2023-04-26T22:43:19.241Z,8.70
2023-04-26T22:45:45.913Z,8.70
2023-04-26T22:48:13.067Z,8.60
2023-04-26T22:50:39.756Z,8.60
2023-04-26T22:53:06.423Z,8.50
2023-04-26T22:55:33.059Z,8.50
2023-04-26T22:58:01.008Z,8.50
2023-04-26T23:00:27.611Z,8.40
2023-04-26T23:02:54.322Z,8.40
2023-04-26T23:05:21.024Z,8.30
2023-04-26T23:07:48.901Z,8.20
2023-04-26T23:10:15.471Z,8.20
2023-04-26T23:12:42.093Z,8.20
2023-04-26T23:15:08.724Z,8.10
2023-04-26T23:17:37.532Z,8.10
2023-04-26T23:20:13.581Z,8.00
2023-04-26T23:22:40.219Z,8.00
2023-04-26T23:25:07.246Z,7.90
2023-04-26T23:27:34.114Z,7.80
2023-04-26T23:30:00.749Z,7.80
2023-04-26T23:32:27.380Z,7.70
2023-04-26T23:34:54.014Z,7.70
2023-04-26T23:37:21.324Z,7.70
2023-04-26T23:39:47.915Z,7.70
2023-04-26T23:42:14.570Z,7.60
2023-04-26T23:44:41.333Z,7.60
2023-04-26T23:47:07.967Z,7.60
2023-04-26T23:49:34.586Z,7.50
2023-04-26T23:52:01.177Z,7.50
2023-04-26T23:54:27.789Z,7.50
2023-04-26T23:56:54.381Z,7.40
2023-04-26T23:59:21.180Z,7.40
